Time;durP1;ratioP1;P1;durP2;ratioP2;P2;SDS_P1;SDS_P2;PMS_P1;PMS_P2;Temp;Humidity;BMP_temperature;BMP_pressure;BME280_temperature;BME280_humidity;BME280_pressure;Samples;Min_cycle;Max_cycle;Signal;HPM_P1;HPM_P2
2023/04/03 00:01:36;;;;;;;;;;;17.40;67.10;;;;;;5042548;28;1454;-69
2023/04/03 00:04:02;;;;;;;;;;;17.30;67.10;;;;;;5040608;28;1394;-69
2023/04/03 00:06:27;;;;;;;;;;;17.30;67.10;;;;;;5041749;28;1346;-69
2023/04/03 00:08:52;;;;;;;;;;;17.30;67.10;;;;;;5039581;28;792;-70
2023/04/03 00:11:18;;;;;;;;;;;17.30;67.10;;;;;;5041071;28;2013;-69
2023/04/03 00:13:44;;;;;;;;;;;17.30;67.10;;;;;;5036717;28;914;-69
2023/04/03 00:16:10;;;;;;;;;;;17.40;67.10;;;;;;5044291;28;1363;-70
2023/04/03 00:18:35;;;;;;;;;;;17.30;67.10;;;;;;5039800;28;861;-70
2023/04/03 00:21:01;;;;;;;;;;;17.30;67.10;;;;;;5073205;28;958;-69
2023/04/03 00:23:26;;;;;;;;;;;17.30;67.10;;;;;;5075291;28;878;-70
2023/04/03 00:25:52;;;;;;;;;;;17.30;67.10;;;;;;5040414;28;1362;-69
2023/04/03 00:28:17;;;;;;;;;;;17.30;67.10;;;;;;5070954;28;889;-70
2023/04/03 00:30:43;;;;;;;;;;;17.30;67.10;;;;;;5037795;28;1910;-69
2023/04/03 00:33:10;;;;;;;;;;;17.30;67.10;;;;;;5038300;28;852;-70
2023/04/03 00:35:35;;;;;;;;;;;17.30;67.10;;;;;;5037042;28;1449;-70
2023/04/03 00:38:01;;;;;;;;;;;17.30;67.10;;;;;;5036380;28;1029;-70
2023/04/03 00:40:26;;;;;;;;;;;17.30;67.10;;;;;;5037385;28;856;-69
2023/04/03 00:42:55;;;;;;;;;;;17.30;67.10;;;;;;5036338;28;1275;-70
2023/04/03 00:45:24;;;;;;;;;;;17.30;67.10;;;;;;5067957;28;1331;-70
2023/04/03 00:47:49;;;;;;;;;;;17.30;67.10;;;;;;5040938;28;816;-70
2023/04/03 00:50:15;;;;;;;;;;;17.30;67.10;;;;;;5070170;28;812;-69
2023/04/03 00:52:40;;;;;;;;;;;17.30;67.10;;;;;;5035344;28;1898;-70
2023/04/03 00:55:06;;;;;;;;;;;17.30;67.10;;;;;;5036886;28;1373;-70
2023/04/03 00:57:32;;;;;;;;;;;17.30;67.10;;;;;;5056195;28;1170;-70
2023/04/03 00:59:59;;;;;;;;;;;17.30;67.10;;;;;;5041074;28;829;-70
2023/04/03 01:02:25;;;;;;;;;;;17.30;67.10;;;;;;5046952;28;1581;-69
2023/04/03 01:04:51;;;;;;;;;;;17.30;67.10;;;;;;5038120;28;1365;-70
2023/04/03 01:07:18;;;;;;;;;;;17.30;67.10;;;;;;5037469;28;904;-71
2023/04/03 01:09:44;;;;;;;;;;;17.30;67.10;;;;;;5038417;28;899;-69
2023/04/03 01:12:16;;;;;;;;;;;17.30;67.10;;;;;;5037811;28;1922;-70
2023/04/03 01:14:42;;;;;;;;;;;17.30;67.10;;;;;;5046293;28;1411;-71
2023/04/03 01:17:26;;;;;;;;;;;17.30;67.10;;;;;;5039499;28;903;-71
2023/04/03 01:19:54;;;;;;;;;;;17.30;67.10;;;;;;5042090;28;991;-71
2023/04/03 01:22:19;;;;;;;;;;;17.30;67.10;;;;;;5037027;28;995;-73
2023/04/03 01:24:46;;;;;;;;;;;17.30;67.10;;;;;;5047234;28;1373;-72
2023/04/03 01:27:12;;;;;;;;;;;17.30;67.20;;;;;;5039447;28;1479;-72
2023/04/03 01:29:37;;;;;;;;;;;17.30;67.10;;;;;;5036714;28;1778;-71
2023/04/03 01:32:03;;;;;;;;;;;17.30;67.10;;;;;;5073688;28;1910;-71
2023/04/03 01:34:29;;;;;;;;;;;17.30;67.10;;;;;;5069800;28;1257;-70
2023/04/03 01:36:54;;;;;;;;;;;17.30;67.20;;;;;;5071122;28;1454;-69
2023/04/03 01:39:20;;;;;;;;;;;17.30;67.20;;;;;;5047572;28;841;-70
2023/04/03 01:41:46;;;;;;;;;;;17.30;67.10;;;;;;5043058;28;904;-71
2023/04/03 01:44:11;;;;;;;;;;;17.30;67.10;;;;;;5038903;28;1357;-71
2023/04/03 01:46:37;;;;;;;;;;;17.30;67.10;;;;;;5036764;28;935;-70
2023/04/03 01:49:03;;;;;;;;;;;17.30;67.10;;;;;;5037714;28;911;-68
2023/04/03 01:51:28;;;;;;;;;;;17.30;67.10;;;;;;5034811;28;1974;-69
2023/04/03 01:53:54;;;;;;;;;;;17.30;67.10;;;;;;5043147;28;811;-68
2023/04/03 01:56:20;;;;;;;;;;;17.30;67.10;;;;;;5037706;28;1319;-70
2023/04/03 01:58:45;;;;;;;;;;;17.30;67.20;;;;;;5040481;28;816;-70
2023/04/03 02:01:11;;;;;;;;;;;17.30;67.20;;;;;;5042447;28;892;-69
2023/04/03 02:03:36;;;;;;;;;;;17.30;67.10;;;;;;5035860;28;785;-70
2023/04/03 02:06:02;;;;;;;;;;;17.30;68.00;;;;;;5069928;28;1264;-69
2023/04/03 02:08:27;;;;;;;;;;;17.30;67.20;;;;;;5040732;28;927;-69
2023/04/03 02:10:53;;;;;;;;;;;17.30;67.20;;;;;;5048528;28;1973;-70
2023/04/03 02:13:18;;;;;;;;;;;17.30;67.20;;;;;;5042168;28;777;-71
2023/04/03 02:15:45;;;;;;;;;;;17.30;67.20;;;;;;5040275;28;1295;-73
2023/04/03 02:18:11;;;;;;;;;;;17.30;67.20;;;;;;5050571;28;1462;-71
2023/04/03 02:20:36;;;;;;;;;;;17.30;67.20;;;;;;5042306;28;868;-71
2023/04/03 02:23:02;;;;;;;;;;;17.30;67.20;;;;;;5042025;28;963;-70
2023/04/03 02:25:27;;;;;;;;;;;17.30;67.20;;;;;;5043831;28;1376;-71
2023/04/03 02:27:53;;;;;;;;;;;17.30;67.20;;;;;;5041776;28;812;-69
2023/04/03 02:30:18;;;;;;;;;;;17.30;67.20;;;;;;5046290;28;1038;-71
2023/04/03 02:32:44;;;;;;;;;;;17.30;67.20;;;;;;5047749;28;1955;-70
2023/04/03 02:35:10;;;;;;;;;;;17.30;67.20;;;;;;5072091;28;1278;-71
2023/04/03 02:37:35;;;;;;;;;;;17.30;67.20;;;;;;5044159;28;1110;-70
2023/04/03 02:40:01;;;;;;;;;;;17.30;67.20;;;;;;5043537;28;916;-70
2023/04/03 02:42:26;;;;;;;;;;;17.30;67.30;;;;;;5038194;28;1264;-72
2023/04/03 02:44:52;;;;;;;;;;;17.30;67.30;;;;;;5040760;28;1296;-70
2023/04/03 02:47:17;;;;;;;;;;;17.30;67.20;;;;;;5047221;28;891;-70
2023/04/03 02:49:46;;;;;;;;;;;17.30;67.20;;;;;;5043796;28;844;-72
2023/04/03 02:52:12;;;;;;;;;;;17.30;67.30;;;;;;5040492;28;1906;-71
2023/04/03 02:54:37;;;;;;;;;;;17.30;67.20;;;;;;5042514;28;1202;-70
2023/04/03 02:57:03;;;;;;;;;;;17.30;67.20;;;;;;5077771;28;843;-70
2023/04/03 02:59:28;;;;;;;;;;;17.30;67.20;;;;;;5077386;28;792;-70
2023/04/03 03:01:55;;;;;;;;;;;17.30;67.20;;;;;;5045378;28;867;-70
2023/04/03 03:04:20;;;;;;;;;;;17.30;67.30;;;;;;5045433;28;1377;-70
2023/04/03 03:06:46;;;;;;;;;;;17.30;67.20;;;;;;5046687;28;863;-69
2023/04/03 03:09:12;;;;;;;;;;;17.30;67.20;;;;;;5043780;28;804;-71
2023/04/03 03:11:38;;;;;;;;;;;17.30;67.20;;;;;;5042839;28;1978;-70
2023/04/03 03:14:04;;;;;;;;;;;17.20;67.20;;;;;;5041246;28;899;-72
2023/04/03 03:16:29;;;;;;;;;;;17.30;67.30;;;;;;5041943;28;1304;-70
2023/04/03 03:18:55;;;;;;;;;;;17.20;67.20;;;;;;5044392;28;1073;-70
2023/04/03 03:21:20;;;;;;;;;;;17.30;67.20;;;;;;5041994;28;863;-70
2023/04/03 03:23:46;;;;;;;;;;;17.30;67.20;;;;;;5040701;28;840;-69
2023/04/03 03:26:11;;;;;;;;;;;17.30;67.20;;;;;;5038800;28;1243;-69
2023/04/03 03:28:37;;;;;;;;;;;17.20;67.20;;;;;;5039807;28;1723;-70
2023/04/03 03:31:02;;;;;;;;;;;17.20;67.20;;;;;;5051589;28;1956;-71
2023/04/03 03:33:28;;;;;;;;;;;17.30;67.30;;;;;;5042577;28;978;-70
2023/04/03 03:35:53;;;;;;;;;;;17.30;67.20;;;;;;5073859;28;1278;-70
2023/04/03 03:38:19;;;;;;;;;;;17.30;67.20;;;;;;5038399;28;1481;-70
2023/04/03 03:40:44;;;;;;;;;;;17.30;67.20;;;;;;5049441;28;962;-70
2023/04/03 03:43:10;;;;;;;;;;;17.30;67.20;;;;;;5043246;28;1330;-70
2023/04/03 03:45:35;;;;;;;;;;;17.30;67.20;;;;;;5048586;28;1327;-70
2023/04/03 03:48:01;;;;;;;;;;;17.20;67.20;;;;;;5042741;28;800;-71
2023/04/03 03:50:26;;;;;;;;;;;17.30;67.30;;;;;;5042477;28;959;-70
2023/04/03 03:52:52;;;;;;;;;;;17.20;67.20;;;;;;5040381;28;1914;-70
2023/04/03 03:55:17;;;;;;;;;;;17.20;67.20;;;;;;5040341;28;1256;-70
2023/04/03 03:57:43;;;;;;;;;;;17.20;67.20;;;;;;5040679;28;825;-69
2023/04/03 04:00:09;;;;;;;;;;;17.20;67.20;;;;;;5041319;28;828;-68
2023/04/03 04:02:34;;;;;;;;;;;17.20;67.20;;;;;;5046545;28;896;-69
2023/04/03 04:05:00;;;;;;;;;;;17.20;67.20;;;;;;5040422;28;1378;-69
2023/04/03 04:07:27;;;;;;;;;;;17.30;67.30;;;;;;5043804;28;887;-68
2023/04/03 04:09:53;;;;;;;;;;;17.20;67.20;;;;;;5045213;28;882;-69
2023/04/03 04:12:19;;;;;;;;;;;17.20;67.20;;;;;;5042669;28;1976;-69
2023/04/03 04:14:46;;;;;;;;;;;17.30;67.20;;;;;;5037816;28;1287;-70
2023/04/03 04:17:12;;;;;;;;;;;17.30;67.10;;;;;;5037754;28;892;-69
2023/04/03 04:19:37;;;;;;;;;;;17.30;67.00;;;;;;5039780;28;986;-70
2023/04/03 04:22:03;;;;;;;;;;;17.30;67.00;;;;;;5043314;28;864;-69
2023/04/03 04:24:28;;;;;;;;;;;17.30;66.90;;;;;;5038970;28;1279;-70
2023/04/03 04:26:54;;;;;;;;;;;17.40;66.90;;;;;;5035768;28;811;-70
2023/04/03 04:29:19;;;;;;;;;;;17.40;66.80;;;;;;5071100;28;920;-71
2023/04/03 04:31:45;;;;;;;;;;;17.40;66.70;;;;;;5038361;28;1969;-72
2023/04/03 04:34:10;;;;;;;;;;;17.40;66.50;;;;;;5037347;28;796;-71
2023/04/03 04:36:36;;;;;;;;;;;17.40;66.40;;;;;;5039767;28;1391;-70
2023/04/03 04:39:01;;;;;;;;;;;17.50;66.50;;;;;;5040227;28;939;-70
2023/04/03 04:41:27;;;;;;;;;;;17.50;66.30;;;;;;5037176;28;884;-70
2023/04/03 04:43:52;;;;;;;;;;;17.50;66.30;;;;;;5038347;28;1321;-71
2023/04/03 04:46:18;;;;;;;;;;;17.50;66.20;;;;;;5035437;28;1275;-70
2023/04/03 04:48:43;;;;;;;;;;;17.60;66.20;;;;;;5040485;28;816;-69
2023/04/03 04:51:09;;;;;;;;;;;17.60;66.10;;;;;;5039893;28;1902;-71
2023/04/03 04:53:34;;;;;;;;;;;17.60;66.10;;;;;;5071575;28;932;-71
2023/04/03 04:56:00;;;;;;;;;;;17.60;66.00;;;;;;5039254;28;1321;-70
2023/04/03 04:58:25;;;;;;;;;;;17.60;66.00;;;;;;5039489;28;816;-69
2023/04/03 05:01:00;;;;;;;;;;;17.60;65.90;;;;;;5041477;28;864;-72
2023/04/03 05:03:26;;;;;;;;;;;17.60;65.90;;;;;;5037492;28;813;-72
2023/04/03 05:05:51;;;;;;;;;;;17.60;65.80;;;;;;5038275;28;1271;-73
2023/04/03 05:08:16;;;;;;;;;;;17.60;65.80;;;;;;5046938;28;1033;-72
2023/04/03 05:10:42;;;;;;;;;;;17.60;65.80;;;;;;5037930;28;1906;-71
2023/04/03 05:13:07;;;;;;;;;;;17.60;65.70;;;;;;5042550;28;828;-74
2023/04/03 05:15:33;;;;;;;;;;;17.60;65.70;;;;;;5036017;28;1260;-73
2023/04/03 05:17:58;;;;;;;;;;;17.70;65.70;;;;;;5040962;28;840;-73
2023/04/03 05:20:25;;;;;;;;;;;17.70;65.70;;;;;;5048306;28;852;-73
2023/04/03 05:22:50;;;;;;;;;;;17.60;65.70;;;;;;5037491;28;938;-72
2023/04/03 05:25:16;;;;;;;;;;;17.70;65.70;;;;;;5037289;28;1280;-73
2023/04/03 05:27:41;;;;;;;;;;;17.70;65.70;;;;;;5073006;28;911;-72
2023/04/03 05:30:07;;;;;;;;;;;17.60;65.70;;;;;;5039372;28;924;-70
2023/04/03 05:32:32;;;;;;;;;;;17.60;65.70;;;;;;5036751;28;1961;-69
2023/04/03 05:34:58;;;;;;;;;;;17.60;65.70;;;;;;5034834;28;1355;-69
2023/04/03 05:37:23;;;;;;;;;;;17.60;65.70;;;;;;5038232;28;1442;-69
2023/04/03 05:39:49;;;;;;;;;;;17.60;65.70;;;;;;5039756;28;924;-69
2023/04/03 05:42:15;;;;;;;;;;;17.60;65.70;;;;;;5037410;28;816;-70
2023/04/03 05:44:41;;;;;;;;;;;17.60;65.80;;;;;;5041090;28;1217;-69
2023/04/03 05:47:07;;;;;;;;;;;17.60;65.80;;;;;;5036920;28;843;-69
2023/04/03 05:49:32;;;;;;;;;;;17.60;65.80;;;;;;5040513;28;765;-72
2023/04/03 05:51:57;;;;;;;;;;;17.60;65.90;;;;;;5035753;28;1902;-69
2023/04/03 05:54:27;;;;;;;;;;;17.60;65.80;;;;;;5038474;28;1359;-72
2023/04/03 05:56:52;;;;;;;;;;;17.60;65.90;;;;;;5036401;28;2145;-68
2023/04/03 05:59:18;;;;;;;;;;;17.60;65.90;;;;;;5037190;28;1948;-68
2023/04/03 06:01:43;;;;;;;;;;;17.60;65.90;;;;;;5039696;28;1360;-67
2023/04/03 06:04:09;;;;;;;;;;;17.60;65.90;;;;;;5036967;28;896;-67
2023/04/03 06:06:53;;;;;;;;;;;17.60;65.90;;;;;;5037956;28;1245;-68
2023/04/03 06:09:19;;;;;;;;;;;17.60;66.00;;;;;;5037813;28;955;-68
2023/04/03 06:11:45;;;;;;;;;;;17.60;66.00;;;;;;5038700;28;1913;-67
2023/04/03 06:14:11;;;;;;;;;;;17.60;66.00;;;;;;5039003;28;903;-67
2023/04/03 06:16:37;;;;;;;;;;;17.50;66.00;;;;;;5032701;28;1308;-68
2023/04/03 06:19:02;;;;;;;;;;;17.50;66.00;;;;;;5070524;28;880;-69
2023/04/03 06:21:28;;;;;;;;;;;17.60;66.10;;;;;;5074198;28;788;-70
2023/04/03 06:23:53;;;;;;;;;;;17.50;66.10;;;;;;5041242;28;865;-68
2023/04/03 06:26:18;;;;;;;;;;;17.50;66.10;;;;;;5037772;28;1373;-69
2023/04/03 06:28:47;;;;;;;;;;;17.50;66.10;;;;;;5035898;28;896;-68
2023/04/03 06:31:12;;;;;;;;;;;17.50;66.10;;;;;;5037828;28;1965;-68
2023/04/03 06:33:38;;;;;;;;;;;17.50;66.10;;;;;;5039970;28;1501;-69
2023/04/03 06:36:03;;;;;;;;;;;17.50;66.10;;;;;;5036965;28;1389;-70
2023/04/03 06:38:29;;;;;;;;;;;17.50;66.20;;;;;;5037440;28;1921;-70
2023/04/03 06:40:55;;;;;;;;;;;17.50;66.20;;;;;;5070801;28;1489;-70
2023/04/03 06:43:21;;;;;;;;;;;17.50;66.20;;;;;;5040320;28;1476;-70
2023/04/03 06:45:46;;;;;;;;;;;17.50;66.30;;;;;;5036582;28;1501;-67
2023/04/03 06:48:12;;;;;;;;;;;17.50;66.30;;;;;;5038179;28;873;-71
2023/04/03 06:50:38;;;;;;;;;;;17.50;66.30;;;;;;5037530;28;898;-73
2023/04/03 06:53:03;;;;;;;;;;;17.50;66.30;;;;;;5036100;28;1992;-68
2023/04/03 06:55:29;;;;;;;;;;;17.50;66.30;;;;;;5036759;28;1277;-68
2023/04/03 06:57:55;;;;;;;;;;;17.50;66.30;;;;;;5038210;28;852;-69
2023/04/03 07:00:20;;;;;;;;;;;17.50;66.30;;;;;;5039039;28;886;-69
2023/04/03 07:02:46;;;;;;;;;;;17.50;66.30;;;;;;5041052;28;805;-68
2023/04/03 07:05:12;;;;;;;;;;;17.50;66.30;;;;;;5045160;28;1270;-69
2023/04/03 07:07:38;;;;;;;;;;;17.50;66.30;;;;;;5041999;28;772;-69
2023/04/03 07:10:04;;;;;;;;;;;17.50;66.30;;;;;;5041708;28;912;-69
2023/04/03 07:12:29;;;;;;;;;;;17.50;66.30;;;;;;5039005;28;1898;-69
2023/04/03 07:14:55;;;;;;;;;;;17.50;66.30;;;;;;5042310;28;1267;-68
2023/04/03 07:17:20;;;;;;;;;;;17.50;66.30;;;;;;5041745;28;975;-69
2023/04/03 07:19:46;;;;;;;;;;;17.50;66.20;;;;;;5039636;28;824;-69
2023/04/03 07:22:11;;;;;;;;;;;17.50;66.20;;;;;;5039527;28;923;-69
2023/04/03 07:24:37;;;;;;;;;;;17.50;66.20;;;;;;5042538;28;1259;-68
2023/04/03 07:27:03;;;;;;;;;;;17.50;66.10;;;;;;5042329;28;2008;-68
2023/04/03 07:29:28;;;;;;;;;;;17.50;66.10;;;;;;5040044;28;1391;-68
2023/04/03 07:31:55;;;;;;;;;;;17.60;66.10;;;;;;5043435;28;1894;-68
2023/04/03 07:34:20;;;;;;;;;;;17.60;66.00;;;;;;5041447;28;1453;-67
2023/04/03 07:36:46;;;;;;;;;;;17.60;66.00;;;;;;5042140;28;1483;-68
2023/04/03 07:39:11;;;;;;;;;;;17.60;66.00;;;;;;5035073;28;868;-67
2023/04/03 07:41:37;;;;;;;;;;;17.60;66.00;;;;;;5041489;28;989;-67
2023/04/03 07:44:02;;;;;;;;;;;17.60;66.00;;;;;;5040586;28;1359;-68
2023/04/03 07:46:28;;;;;;;;;;;17.60;65.90;;;;;;5038892;28;1189;-68
2023/04/03 07:48:53;;;;;;;;;;;17.60;65.90;;;;;;5038543;28;907;-68
2023/04/03 07:51:19;;;;;;;;;;;17.60;66.00;;;;;;5035702;28;1953;-68
2023/04/03 07:53:45;;;;;;;;;;;17.60;66.80;;;;;;5039466;28;2060;-68
2023/04/03 07:56:10;;;;;;;;;;;17.60;66.00;;;;;;5039722;28;1388;-68
2023/04/03 07:58:36;;;;;;;;;;;17.60;66.10;;;;;;5041530;28;1135;-67
2023/04/03 08:01:02;;;;;;;;;;;17.60;66.10;;;;;;5070877;28;946;-67
2023/04/03 08:03:27;;;;;;;;;;;17.60;66.00;;;;;;5039198;28;1202;-68
2023/04/03 08:05:53;;;;;;;;;;;17.60;66.00;;;;;;5038260;28;1439;-67
2023/04/03 08:08:19;;;;;;;;;;;17.60;65.90;;;;;;5040054;28;880;-68
2023/04/03 08:10:47;;;;;;;;;;;17.60;65.80;;;;;;5035180;28;903;-68
2023/04/03 08:13:13;;;;;;;;;;;17.70;65.80;;;;;;5070491;28;900;-67
2023/04/03 08:15:38;;;;;;;;;;;17.70;65.70;;;;;;5033223;28;1343;-68
2023/04/03 08:18:04;;;;;;;;;;;17.70;65.70;;;;;;5041176;28;1151;-67
2023/04/03 08:20:30;;;;;;;;;;;17.70;65.60;;;;;;5037270;28;869;-68
2023/04/03 08:22:55;;;;;;;;;;;17.70;65.50;;;;;;5040457;28;834;-67
2023/04/03 08:25:21;;;;;;;;;;;17.70;65.50;;;;;;5038269;28;1294;-68
2023/04/03 08:27:46;;;;;;;;;;;17.70;65.50;;;;;;5034431;28;894;-68
2023/04/03 08:30:12;;;;;;;;;;;17.70;65.40;;;;;;5072168;28;912;-67
2023/04/03 08:32:38;;;;;;;;;;;17.70;65.40;;;;;;5037484;28;1902;-68
2023/04/03 08:35:04;;;;;;;;;;;17.70;65.50;;;;;;5039109;28;1277;-68
2023/04/03 08:37:29;;;;;;;;;;;17.70;65.40;;;;;;5071516;28;1478;-68
2023/04/03 08:39:55;;;;;;;;;;;17.70;65.40;;;;;;5039965;28;2083;-68
2023/04/03 08:42:36;;;;;;;;;;;17.70;65.50;;;;;;5042761;28;1376;-68
2023/04/03 08:45:06;;;;;;;;;;;17.70;65.50;;;;;;5035329;28;1388;-68
2023/04/03 08:47:35;;;;;;;;;;;17.70;65.50;;;;;;5047379;28;1353;-68
2023/04/03 08:50:02;;;;;;;;;;;17.70;65.60;;;;;;5040143;28;1313;-68
2023/04/03 08:52:34;;;;;;;;;;;17.70;65.60;;;;;;5038699;28;1903;-68
2023/04/03 08:55:02;;;;;;;;;;;17.70;65.60;;;;;;5054411;28;1511;-68
2023/04/03 08:57:29;;;;;;;;;;;17.70;65.60;;;;;;5048415;28;871;-68
2023/04/03 08:59:55;;;;;;;;;;;17.70;65.70;;;;;;5071319;28;823;-68
2023/04/03 09:02:23;;;;;;;;;;;17.70;65.70;;;;;;5036338;28;835;-68
2023/04/03 09:04:48;;;;;;;;;;;17.70;65.70;;;;;;5071296;28;1227;-69
2023/04/03 09:07:16;;;;;;;;;;;17.60;65.70;;;;;;5037041;28;1932;-70
2023/04/03 09:09:41;;;;;;;;;;;17.60;65.70;;;;;;5071351;28;1237;-70
2023/04/03 09:12:16;;;;;;;;;;;17.60;65.80;;;;;;5028487;28;1981;-71
2023/04/03 09:15:01;;;;;;;;;;;17.60;65.80;;;;;;5049032;28;1378;-71
2023/04/03 09:17:46;;;;;;;;;;;17.60;65.80;;;;;;5037994;28;1687;-69
2023/04/03 09:20:11;;;;;;;;;;;17.60;65.80;;;;;;5035633;28;1405;-71
2023/04/03 09:22:39;;;;;;;;;;;17.60;65.90;;;;;;5035599;28;1388;-71
2023/04/03 09:25:07;;;;;;;;;;;17.60;65.90;;;;;;5037969;28;1421;-70
2023/04/03 09:27:33;;;;;;;;;;;17.60;65.90;;;;;;5034887;28;909;-70
2023/04/03 09:29:58;;;;;;;;;;;17.60;66.00;;;;;;5037715;28;2300;-66
2023/04/03 09:32:28;;;;;;;;;;;17.50;66.00;;;;;;5072247;28;1902;-66
2023/04/03 09:34:54;;;;;;;;;;;17.60;66.00;;;;;;5038641;28;1476;-66
2023/04/03 09:37:37;;;;;;;;;;;17.60;66.10;;;;;;5035896;28;1739;-66
2023/04/03 09:40:04;;;;;;;;;;;17.50;66.00;;;;;;5040046;28;1275;-69
2023/04/03 09:42:30;;;;;;;;;;;17.50;66.00;;;;;;5037711;28;1430;-68
2023/04/03 09:45:00;;;;;;;;;;;17.50;66.10;;;;;;5037342;28;1526;-74
2023/04/03 09:47:29;;;;;;;;;;;17.50;66.10;;;;;;5068667;28;1533;-72
2023/04/03 09:50:13;;;;;;;;;;;17.50;66.10;;;;;;5067925;28;1454;-71
2023/04/03 09:52:40;;;;;;;;;;;17.50;66.10;;;;;;5053247;28;1968;-73
2023/04/03 09:55:16;;;;;;;;;;;17.50;66.20;;;;;;5042836;28;1429;-73
2023/04/03 09:57:42;;;;;;;;;;;17.50;66.20;;;;;;5040414;28;1686;-71
2023/04/03 10:00:27;;;;;;;;;;;17.50;66.20;;;;;;5036766;28;1521;-71
2023/04/03 10:02:55;;;;;;;;;;;17.50;66.30;;;;;;5049407;28;1433;-73
2023/04/03 10:05:37;;;;;;;;;;;17.50;66.30;;;;;;5039197;28;1499;-70
2023/04/03 10:08:15;;;;;;;;;;;17.50;66.30;;;;;;5044570;28;1882;-70
2023/04/03 10:10:45;;;;;;;;;;;17.50;66.30;;;;;;5040613;28;1439;-71
2023/04/03 10:13:16;;;;;;;;;;;17.50;66.40;;;;;;5041226;28;1898;-70
2023/04/03 10:15:46;;;;;;;;;;;17.50;66.40;;;;;;5038458;28;1472;-71
2023/04/03 10:18:20;;;;;;;;;;;17.40;66.30;;;;;;5066124;28;883;-71
2023/04/03 10:20:50;;;;;;;;;;;17.40;66.30;;;;;;5033392;28;844;-73
2023/04/03 10:23:20;;;;;;;;;;;17.40;66.40;;;;;;5036740;28;879;-73
2023/04/03 10:25:55;;;;;;;;;;;17.40;66.40;;;;;;5038697;28;1250;-74
2023/04/03 10:28:30;;;;;;;;;;;17.40;66.40;;;;;;5021249;28;1198;-71
2023/04/03 10:31:19;;;;;;;;;;;17.40;66.40;;;;;;5045755;28;1961;-69
2023/04/03 10:33:47;;;;;;;;;;;17.40;66.40;;;;;;5008393;28;4285;-70
2023/04/03 10:36:29;;;;;;;;;;;17.40;66.50;;;;;;5038328;28;4792;-70
2023/04/03 10:38:54;;;;;;;;;;;17.40;66.50;;;;;;5077951;28;1343;-69
2023/04/03 10:41:23;;;;;;;;;;;17.40;66.50;;;;;;5043465;28;1364;-69
2023/04/03 10:44:07;;;;;;;;;;;17.40;66.60;;;;;;5039704;28;1021;-69
2023/04/03 10:46:36;;;;;;;;;;;17.40;66.60;;;;;;5045107;28;1301;-70
2023/04/03 10:49:05;;;;;;;;;;;17.40;66.60;;;;;;5034955;28;1251;-70
2023/04/03 10:51:31;;;;;;;;;;;17.40;66.60;;;;;;5042887;28;1961;-70
2023/04/03 10:53:58;;;;;;;;;;;17.40;66.70;;;;;;5044438;28;919;-71
2023/04/03 10:56:36;;;;;;;;;;;17.40;66.70;;;;;;5049227;28;1259;-71
2023/04/03 10:59:21;;;;;;;;;;;17.30;66.60;;;;;;5040518;28;907;-71
2023/04/03 11:01:51;;;;;;;;;;;17.30;66.50;;;;;;5038029;28;982;-71
2023/04/03 11:04:17;;;;;;;;;;;17.30;66.50;;;;;;5049081;28;1354;-70
2023/04/03 11:06:43;;;;;;;;;;;17.30;66.50;;;;;;5048970;28;1161;-71
2023/04/03 11:09:16;;;;;;;;;;;17.30;66.40;;;;;;5040045;28;855;-70
2023/04/03 11:11:42;;;;;;;;;;;17.30;66.40;;;;;;5073807;28;1910;-70
2023/04/03 11:14:27;;;;;;;;;;;17.30;66.50;;;;;;5048056;28;2037;-70
2023/04/03 11:17:00;;;;;;;;;;;17.30;66.40;;;;;;5039928;28;1249;-70
2023/04/03 11:19:35;;;;;;;;;;;17.30;66.50;;;;;;5071903;28;1314;-71
2023/04/03 11:22:03;;;;;;;;;;;17.30;66.50;;;;;;5039703;28;840;-70
2023/04/03 11:24:29;;;;;;;;;;;17.30;66.50;;;;;;5048708;28;1530;-71
2023/04/03 11:26:55;;;;;;;;;;;17.30;66.50;;;;;;5072891;28;794;-71
2023/04/03 11:29:22;;;;;;;;;;;17.30;66.50;;;;;;5039593;28;873;-69
2023/04/03 11:31:47;;;;;;;;;;;17.30;66.50;;;;;;5040792;28;1895;-69
2023/04/03 11:34:19;;;;;;;;;;;17.30;66.50;;;;;;5040373;28;1641;-70
2023/04/03 11:36:48;;;;;;;;;;;17.30;66.40;;;;;;5039938;28;1522;-70
2023/04/03 11:39:17;;;;;;;;;;;17.30;66.40;;;;;;5068546;28;867;-69
2023/04/03 11:41:42;;;;;;;;;;;17.30;66.40;;;;;;5034842;28;1673;-68
2023/04/03 11:44:30;;;;;;;;;;;17.30;66.40;;;;;;5038342;28;1303;-68
2023/04/03 11:46:56;;;;;;;;;;;17.30;66.40;;;;;;5042328;28;1266;-69
2023/04/03 11:49:40;;;;;;;;;;;17.30;66.40;;;;;;5035933;28;821;-69
2023/04/03 11:52:09;;;;;;;;;;;17.30;66.30;;;;;;5040279;28;1959;-69
2023/04/03 11:54:36;;;;;;;;;;;17.30;66.40;;;;;;5040859;28;1283;-69
2023/04/03 11:57:21;;;;;;;;;;;17.20;66.40;;;;;;5069503;28;1074;-69
2023/04/03 11:59:46;;;;;;;;;;;17.20;66.30;;;;;;5039509;28;1225;-69
2023/04/03 12:02:35;;;;;;;;;;;17.30;66.40;;;;;;5038701;28;828;-69
2023/04/03 12:05:19;;;;;;;;;;;17.20;66.30;;;;;;5037979;28;1339;-69
2023/04/03 12:07:56;;;;;;;;;;;17.20;66.30;;;;;;5037147;28;800;-70
2023/04/03 12:10:22;;;;;;;;;;;17.20;66.30;;;;;;5070713;28;1426;-69
2023/04/03 12:12:56;;;;;;;;;;;17.20;66.30;;;;;;5057803;28;1969;-70
2023/04/03 12:15:23;;;;;;;;;;;17.20;66.30;;;;;;5038576;28;1383;-69
2023/04/03 12:17:49;;;;;;;;;;;17.20;66.30;;;;;;5039855;28;834;-70
2023/04/03 12:20:34;;;;;;;;;;;17.20;66.30;;;;;;5043497;28;892;-70
2023/04/03 12:23:18;;;;;;;;;;;17.20;66.30;;;;;;5040701;28;1144;-69
2023/04/03 12:25:50;;;;;;;;;;;17.20;66.30;;;;;;5051953;28;1279;-69
2023/04/03 12:28:16;;;;;;;;;;;17.20;66.30;;;;;;5040724;28;848;-69
2023/04/03 12:30:41;;;;;;;;;;;17.20;66.30;;;;;;5038598;28;812;-70
2023/04/03 12:33:07;;;;;;;;;;;17.20;66.30;;;;;;5040705;28;1953;-69
2023/04/03 12:35:37;;;;;;;;;;;17.20;66.30;;;;;;5038184;28;1281;-70
2023/04/03 12:38:05;;;;;;;;;;;17.20;66.20;;;;;;5049924;28;1412;-70
2023/04/03 12:40:40;;;;;;;;;;;17.20;66.20;;;;;;5040290;28;899;-69
2023/04/03 12:43:20;;;;;;;;;;;17.20;66.30;;;;;;5039600;28;1254;-69
2023/04/03 12:45:55;;;;;;;;;;;17.20;66.20;;;;;;5035432;28;1271;-69
2023/04/03 12:48:22;;;;;;;;;;;17.20;66.20;;;;;;5042506;28;1264;-69
2023/04/03 12:50:47;;;;;;;;;;;17.20;66.20;;;;;;5044454;28;1233;-69
2023/04/03 12:53:17;;;;;;;;;;;17.20;66.20;;;;;;5068327;28;1969;-69
2023/04/03 12:55:43;;;;;;;;;;;17.20;66.20;;;;;;5040907;28;1382;-69
2023/04/03 12:58:27;;;;;;;;;;;17.20;66.20;;;;;;5040212;28;1438;-68
2023/04/03 13:01:00;;;;;;;;;;;17.10;66.10;;;;;;5040259;28;1287;-68
2023/04/03 13:03:29;;;;;;;;;;;17.10;66.10;;;;;;5042483;28;1416;-70
2023/04/03 13:05:56;;;;;;;;;;;17.10;66.10;;;;;;5044245;28;2155;-69
2023/04/03 13:08:22;;;;;;;;;;;17.20;66.20;;;;;;5042484;28;1409;-69
2023/04/03 13:11:03;;;;;;;;;;;17.20;66.10;;;;;;5041064;28;1315;-69
2023/04/03 13:13:29;;;;;;;;;;;17.20;66.20;;;;;;5039257;28;1675;-68
2023/04/03 13:15:55;;;;;;;;;;;17.10;66.10;;;;;;5039368;28;1325;-69
2023/04/03 13:18:23;;;;;;;;;;;17.20;66.20;;;;;;5038500;28;1392;-69
2023/04/03 13:20:49;;;;;;;;;;;17.10;66.10;;;;;;5039318;28;1601;-70
2023/04/03 13:23:14;;;;;;;;;;;17.10;66.10;;;;;;5041864;28;1289;-68
2023/04/03 13:25:41;;;;;;;;;;;17.10;66.10;;;;;;5069769;28;1303;-69
2023/04/03 13:28:07;;;;;;;;;;;17.10;66.10;;;;;;5052987;28;2483;-69
2023/04/03 13:30:33;;;;;;;;;;;17.10;66.10;;;;;;5070803;28;1428;-67
2023/04/03 13:32:59;;;;;;;;;;;17.10;66.10;;;;;;5041865;28;1898;-67
2023/04/03 13:35:26;;;;;;;;;;;17.10;66.10;;;;;;5038521;28;1373;-68
2023/04/03 13:37:59;;;;;;;;;;;17.10;66.10;;;;;;5039813;28;1521;-68
2023/04/03 13:40:25;;;;;;;;;;;17.10;66.00;;;;;;5039367;28;1321;-69
2023/04/03 13:43:04;;;;;;;;;;;17.10;65.90;;;;;;5036502;28;1534;-70
2023/04/03 13:45:31;;;;;;;;;;;17.10;66.00;;;;;;5067254;28;1520;-70
2023/04/03 13:48:10;;;;;;;;;;;17.20;66.00;;;;;;5037325;28;1518;-71
2023/04/03 13:50:49;;;;;;;;;;;17.20;65.80;;;;;;5042393;28;1450;-71
2023/04/03 13:53:15;;;;;;;;;;;17.20;65.80;;;;;;5066708;28;1898;-71
2023/04/03 13:55:56;;;;;;;;;;;17.20;65.60;;;;;;5037845;28;1484;-70
2023/04/03 13:58:25;;;;;;;;;;;17.20;65.50;;;;;;5038253;28;2071;-70
2023/04/03 14:00:53;;;;;;;;;;;17.30;65.40;;;;;;5043791;28;1368;-69
2023/04/03 14:03:19;;;;;;;;;;;17.30;65.30;;;;;;5038238;28;1075;-69
2023/04/03 14:05:45;;;;;;;;;;;17.30;65.10;;;;;;5036639;28;1346;-69
2023/04/03 14:08:10;;;;;;;;;;;17.30;65.00;;;;;;5040320;28;2050;-69
2023/04/03 14:10:36;;;;;;;;;;;17.30;64.90;;;;;;5041380;28;1356;-70
2023/04/03 14:13:03;;;;;;;;;;;17.40;64.80;;;;;;5077584;28;1898;-70
2023/04/03 14:15:28;;;;;;;;;;;17.40;64.70;;;;;;5041747;28;1248;-69
2023/04/03 14:17:55;;;;;;;;;;;17.40;64.70;;;;;;5047207;28;1162;-70
2023/04/03 14:20:21;;;;;;;;;;;17.40;64.50;;;;;;5073704;28;904;-70
2023/04/03 14:22:47;;;;;;;;;;;17.40;64.40;;;;;;5041280;28;902;-70
2023/04/03 14:25:12;;;;;;;;;;;17.40;64.30;;;;;;5075719;28;1287;-70
2023/04/03 14:27:39;;;;;;;;;;;17.50;64.20;;;;;;5042142;28;903;-70
2023/04/03 14:30:05;;;;;;;;;;;17.50;64.20;;;;;;5041764;28;852;-70
2023/04/03 14:32:31;;;;;;;;;;;17.50;64.10;;;;;;5040042;28;1898;-69
2023/04/03 14:34:58;;;;;;;;;;;17.50;64.00;;;;;;5041009;28;1348;-69
2023/04/03 14:37:27;;;;;;;;;;;17.50;63.90;;;;;;5077009;28;909;-69
2023/04/03 14:39:53;;;;;;;;;;;17.50;63.80;;;;;;5042123;28;828;-69